Turks and Caicos Islands Weather

[source: ADDS]
METAR
MBPV 260430Z 2606/2706 13010KT 9999 BKN020 BKN060 MBGT 260430Z 2606/2706 13010KT 9999 BKN020 BKN060 TAF
MBPV 260430Z 2606/2706 13010KT 9999 BKN020 BKN060 =
MBGT 260430Z 2606/2706 13010KT 9999 BKN020 BKN060 =
SR / SS: 11:28 / 22:35 UTC (MBPV 2015-01-26)
E-mail Print PDF
Weather